sensor_id;sensor_type;location;lat;lon;timestamp;temperature;humidity
10419;DHT22;5256;48.728;9.140;2022-08-01T00:00:11;21.00;92.30
10419;DHT22;5256;48.728;9.140;2022-08-01T00:02:37;21.00;92.40
10419;DHT22;5256;48.728;9.140;2022-08-01T00:05:04;21.00;92.50
10419;DHT22;5256;48.728;9.140;2022-08-01T00:07:31;21.00;92.50
10419;DHT22;5256;48.728;9.140;2022-08-01T00:09:57;21.00;92.50
10419;DHT22;5256;48.728;9.140;2022-08-01T00:12:22;21.00;92.50
10419;DHT22;5256;48.728;9.140;2022-08-01T00:14:48;21.00;92.60
10419;DHT22;5256;48.728;9.140;2022-08-01T00:17:14;21.00;92.70
10419;DHT22;5256;48.728;9.140;2022-08-01T00:19:40;21.00;92.80
10419;DHT22;5256;48.728;9.140;2022-08-01T00:22:06;21.00;92.80
10419;DHT22;5256;48.728;9.140;2022-08-01T00:24:32;20.90;92.90
10419;DHT22;5256;48.728;9.140;2022-08-01T00:26:58;20.90;93.00
10419;DHT22;5256;48.728;9.140;2022-08-01T00:29:24;20.90;93.00
10419;DHT22;5256;48.728;9.140;2022-08-01T00:31:49;20.90;93.20
10419;DHT22;5256;48.728;9.140;2022-08-01T00:34:15;20.80;93.20
10419;DHT22;5256;48.728;9.140;2022-08-01T00:36:40;20.80;93.30
10419;DHT22;5256;48.728;9.140;2022-08-01T00:39:06;20.80;93.50
10419;DHT22;5256;48.728;9.140;2022-08-01T00:41:31;20.80;93.60
10419;DHT22;5256;48.728;9.140;2022-08-01T00:43:57;20.80;93.70
10419;DHT22;5256;48.728;9.140;2022-08-01T00:46:22;20.80;93.90
10419;DHT22;5256;48.728;9.140;2022-08-01T00:48:48;20.70;94.00
10419;DHT22;5256;48.728;9.140;2022-08-01T00:51:14;20.70;94.10
10419;DHT22;5256;48.728;9.140;2022-08-01T00:53:40;20.70;94.20
10419;DHT22;5256;48.728;9.140;2022-08-01T00:56:06;20.60;94.30
10419;DHT22;5256;48.728;9.140;2022-08-01T00:58:33;20.60;94.60
10419;DHT22;5256;48.728;9.140;2022-08-01T01:00:59;20.60;94.60
10419;DHT22;5256;48.728;9.140;2022-08-01T01:03:25;20.50;94.80
10419;DHT22;5256;48.728;9.140;2022-08-01T01:08:49;20.50;95.10
10419;DHT22;5256;48.728;9.140;2022-08-01T01:11:28;20.40;95.30
10419;DHT22;5256;48.728;9.140;2022-08-01T01:14:13;20.40;95.60
10419;DHT22;5256;48.728;9.140;2022-08-01T01:16:42;20.40;95.70
10419;DHT22;5256;48.728;9.140;2022-08-01T01:19:15;20.40;96.00
10419;DHT22;5256;48.728;9.140;2022-08-01T01:22:07;20.40;96.20
10419;DHT22;5256;48.728;9.140;2022-08-01T01:27:24;20.30;96.60
10419;DHT22;5256;48.728;9.140;2022-08-01T01:29:54;20.30;96.80
10419;DHT22;5256;48.728;9.140;2022-08-01T01:32:35;20.20;97.00
10419;DHT22;5256;48.728;9.140;2022-08-01T01:35:06;20.20;97.30
10419;DHT22;5256;48.728;9.140;2022-08-01T01:37:33;20.20;97.60
10419;DHT22;5256;48.728;9.140;2022-08-01T01:40:00;20.10;97.90
10419;DHT22;5256;48.728;9.140;2022-08-01T01:42:28;20.00;98.20
10419;DHT22;5256;48.728;9.140;2022-08-01T01:44:56;20.00;98.40
10419;DHT22;5256;48.728;9.140;2022-08-01T01:47:23;20.00;98.70
10419;DHT22;5256;48.728;9.140;2022-08-01T01:49:51;20.00;98.90
10419;DHT22;5256;48.728;9.140;2022-08-01T01:52:18;20.00;99.20
10419;DHT22;5256;48.728;9.140;2022-08-01T01:54:48;20.00;99.40
10419;DHT22;5256;48.728;9.140;2022-08-01T01:57:16;19.90;99.70
10419;DHT22;5256;48.728;9.140;2022-08-01T01:59:42;19.80;99.90
10419;DHT22;5256;48.728;9.140;2022-08-01T02:02:10;19.80;99.90
10419;DHT22;5256;48.728;9.140;2022-08-01T02:04:40;19.80;99.90
10419;DHT22;5256;48.728;9.140;2022-08-01T02:07:06;19.80;99.90
10419;DHT22;5256;48.728;9.140;2022-08-01T02:09:34;19.80;99.90
10419;DHT22;5256;48.728;9.140;2022-08-01T02:12:02;19.80;99.90
10419;DHT22;5256;48.728;9.140;2022-08-01T02:14:29;19.80;99.90
10419;DHT22;5256;48.728;9.140;2022-08-01T02:16:57;19.80;99.90
10419;DHT22;5256;48.728;9.140;2022-08-01T02:19:23;19.90;99.90
10419;DHT22;5256;48.728;9.140;2022-08-01T02:27:09;19.80;99.90
10419;DHT22;5256;48.728;9.140;2022-08-01T02:29:57;19.80;99.90
10419;DHT22;5256;48.728;9.140;2022-08-01T02:32:27;19.80;99.90
10419;DHT22;5256;48.728;9.140;2022-08-01T02:34:57;19.70;99.90
10419;DHT22;5256;48.728;9.140;2022-08-01T02:37:24;19.70;99.90
10419;DHT22;5256;48.728;9.140;2022-08-01T02:39:52;19.60;99.90
10419;DHT22;5256;48.728;9.140;2022-08-01T02:42:19;19.60;99.90
10419;DHT22;5256;48.728;9.140;2022-08-01T02:44:46;19.50;99.90
10419;DHT22;5256;48.728;9.140;2022-08-01T02:47:13;19.50;99.90
10419;DHT22;5256;48.728;9.140;2022-08-01T02:49:45;19.30;99.90
10419;DHT22;5256;48.728;9.140;2022-08-01T02:52:14;19.20;99.90
10419;DHT22;5256;48.728;9.140;2022-08-01T02:54:43;19.20;99.90
10419;DHT22;5256;48.728;9.140;2022-08-01T02:57:10;19.20;99.90
10419;DHT22;5256;48.728;9.140;2022-08-01T02:59:39;19.20;99.90
10419;DHT22;5256;48.728;9.140;2022-08-01T03:02:06;19.20;99.90
10419;DHT22;5256;48.728;9.140;2022-08-01T03:04:37;19.20;99.90
10419;DHT22;5256;48.728;9.140;2022-08-01T03:07:05;19.20;99.90
10419;DHT22;5256;48.728;9.140;2022-08-01T03:09:34;19.10;99.90
10419;DHT22;5256;48.728;9.140;2022-08-01T03:12:02;19.20;99.90
10419;DHT22;5256;48.728;9.140;2022-08-01T03:14:29;19.10;99.90
10419;DHT22;5256;48.728;9.140;2022-08-01T03:16:56;19.10;99.90
10419;DHT22;5256;48.728;9.140;2022-08-01T03:19:24;19.00;99.90
10419;DHT22;5256;48.728;9.140;2022-08-01T03:21:52;19.10;99.90
10419;DHT22;5256;48.728;9.140;2022-08-01T03:24:18;19.00;99.90
10419;DHT22;5256;48.728;9.140;2022-08-01T03:26:46;19.00;99.90
10419;DHT22;5256;48.728;9.140;2022-08-01T03:29:18;19.00;99.90
10419;DHT22;5256;48.728;9.140;2022-08-01T03:31:46;19.00;99.90
10419;DHT22;5256;48.728;9.140;2022-08-01T03:34:13;19.00;99.90
10419;DHT22;5256;48.728;9.140;2022-08-01T03:39:52;19.00;99.90
10419;DHT22;5256;48.728;9.140;2022-08-01T03:42:23;19.00;99.90
10419;DHT22;5256;48.728;9.140;2022-08-01T03:45:05;18.90;99.90
10419;DHT22;5256;48.728;9.140;2022-08-01T03:47:33;18.90;99.90
10419;DHT22;5256;48.728;9.140;2022-08-01T03:50:01;18.90;99.90
10419;DHT22;5256;48.728;9.140;2022-08-01T03:52:28;18.90;99.90
10419;DHT22;5256;48.728;9.140;2022-08-01T03:54:56;18.90;99.90
10419;DHT22;5256;48.728;9.140;2022-08-01T03:57:24;18.90;99.90
10419;DHT22;5256;48.728;9.140;2022-08-01T03:59:51;18.90;99.90
10419;DHT22;5256;48.728;9.140;2022-08-01T04:02:18;18.90;99.90
10419;DHT22;5256;48.728;9.140;2022-08-01T04:04:45;18.80;99.90
10419;DHT22;5256;48.728;9.140;2022-08-01T04:07:27;18.90;99.90
10419;DHT22;5256;48.728;9.140;2022-08-01T04:09:53;18.90;99.90
10419;DHT22;5256;48.728;9.140;2022-08-01T04:12:19;19.00;99.90
10419;DHT22;5256;48.728;9.140;2022-08-01T04:14:45;19.00;99.90
10419;DHT22;5256;48.728;9.140;2022-08-01T04:17:11;19.10;99.90
10419;DHT22;5256;48.728;9.140;2022-08-01T04:19:36;19.10;99.90
10419;DHT22;5256;48.728;9.140;2022-08-01T04:22:02;19.20;99.90
10419;DHT22;5256;48.728;9.140;2022-08-01T04:24:29;19.30;99.90
10419;DHT22;5256;48.728;9.140;2022-08-01T04:26:58;19.30;99.90
10419;DHT22;5256;48.728;9.140;2022-08-01T04:29:26;19.30;99.90
10419;DHT22;5256;48.728;9.140;2022-08-01T04:31:54;19.40;99.90
10419;DHT22;5256;48.728;9.140;2022-08-01T04:34:23;19.50;99.90
10419;DHT22;5256;48.728;9.140;2022-08-01T04:36:52;19.50;99.90
10419;DHT22;5256;48.728;9.140;2022-08-01T04:39:19;19.60;99.90
10419;DHT22;5256;48.728;9.140;2022-08-01T04:41:46;19.60;99.90
10419;DHT22;5256;48.728;9.140;2022-08-01T04:44:13;19.60;99.90
10419;DHT22;5256;48.728;9.140;2022-08-01T04:46:39;19.70;99.90
10419;DHT22;5256;48.728;9.140;2022-08-01T04:49:08;19.70;99.90
10419;DHT22;5256;48.728;9.140;2022-08-01T04:51:34;19.80;99.90
10419;DHT22;5256;48.728;9.140;2022-08-01T04:54:00;19.80;99.90
10419;DHT22;5256;48.728;9.140;2022-08-01T04:56:26;19.90;99.90
10419;DHT22;5256;48.728;9.140;2022-08-01T04:58:52;19.90;99.90
10419;DHT22;5256;48.728;9.140;2022-08-01T05:01:37;19.90;99.90
10419;DHT22;5256;48.728;9.140;2022-08-01T05:04:03;20.00;99.90
10419;DHT22;5256;48.728;9.140;2022-08-01T05:06:29;20.10;99.90
10419;DHT22;5256;48.728;9.140;2022-08-01T05:08:54;20.10;99.90
10419;DHT22;5256;48.728;9.140;2022-08-01T05:11:20;20.00;99.90
10419;DHT22;5256;48.728;9.140;2022-08-01T05:13:47;20.00;99.90
10419;DHT22;5256;48.728;9.140;2022-08-01T05:16:13;20.00;99.90
10419;DHT22;5256;48.728;9.140;2022-08-01T05:18:38;20.10;99.90
10419;DHT22;5256;48.728;9.140;2022-08-01T05:21:04;20.30;99.90
10419;DHT22;5256;48.728;9.140;2022-08-01T05:23:29;20.60;99.90
10419;DHT22;5256;48.728;9.140;2022-08-01T05:25:55;20.90;99.90
10419;DHT22;5256;48.728;9.140;2022-08-01T05:28:20;21.10;99.90
10419;DHT22;5256;48.728;9.140;2022-08-01T05:30:46;21.30;99.90
10419;DHT22;5256;48.728;9.140;2022-08-01T05:33:12;21.50;99.90
10419;DHT22;5256;48.728;9.140;2022-08-01T05:35:37;21.60;99.90
10419;DHT22;5256;48.728;9.140;2022-08-01T05:38:03;21.80;99.90
10419;DHT22;5256;48.728;9.140;2022-08-01T05:40:28;21.90;99.90
10419;DHT22;5256;48.728;9.140;2022-08-01T05:42:54;22.00;99.90
10419;DHT22;5256;48.728;9.140;2022-08-01T05:45:19;22.20;99.90
10419;DHT22;5256;48.728;9.140;2022-08-01T05:47:45;22.80;99.90
10419;DHT22;5256;48.728;9.140;2022-08-01T05:50:11;23.40;99.90
10419;DHT22;5256;48.728;9.140;2022-08-01T05:52:36;24.00;99.90
10419;DHT22;5256;48.728;9.140;2022-08-01T05:55:02;24.40;99.90
10419;DHT22;5256;48.728;9.140;2022-08-01T05:57:28;24.70;99.90
10419;DHT22;5256;48.728;9.140;2022-08-01T05:59:53;24.70;99.90
10419;DHT22;5256;48.728;9.140;2022-08-01T06:02:19;24.80;99.90
10419;DHT22;5256;48.728;9.140;2022-08-01T06:04:45;25.00;99.90
10419;DHT22;5256;48.728;9.140;2022-08-01T06:07:10;25.00;99.90
10419;DHT22;5256;48.728;9.140;2022-08-01T06:09:36;24.70;99.90
10419;DHT22;5256;48.728;9.140;2022-08-01T06:12:01;24.80;99.90
10419;DHT22;5256;48.728;9.140;2022-08-01T06:14:28;24.90;99.90
10419;DHT22;5256;48.728;9.140;2022-08-01T06:16:54;24.80;99.90
10419;DHT22;5256;48.728;9.140;2022-08-01T06:19:19;24.80;99.90
10419;DHT22;5256;48.728;9.140;2022-08-01T06:21:45;24.80;99.90
10419;DHT22;5256;48.728;9.140;2022-08-01T06:24:11;24.90;99.90
10419;DHT22;5256;48.728;9.140;2022-08-01T06:26:36;25.10;99.90
10419;DHT22;5256;48.728;9.140;2022-08-01T06:29:02;25.30;99.90
10419;DHT22;5256;48.728;9.140;2022-08-01T06:31:28;25.60;99.90
10419;DHT22;5256;48.728;9.140;2022-08-01T06:33:53;26.10;99.90
10419;DHT22;5256;48.728;9.140;2022-08-01T06:36:20;26.40;99.90
10419;DHT22;5256;48.728;9.140;2022-08-01T06:38:46;26.40;99.90
10419;DHT22;5256;48.728;9.140;2022-08-01T06:41:11;26.60;99.90
10419;DHT22;5256;48.728;9.140;2022-08-01T06:43:37;27.00;99.90
10419;DHT22;5256;48.728;9.140;2022-08-01T06:46:02;26.80;99.90
10419;DHT22;5256;48.728;9.140;2022-08-01T06:48:29;26.30;99.90
10419;DHT22;5256;48.728;9.140;2022-08-01T06:50:54;26.10;99.90
10419;DHT22;5256;48.728;9.140;2022-08-01T06:53:36;25.90;99.90
10419;DHT22;5256;48.728;9.140;2022-08-01T06:56:02;26.00;99.90
10419;DHT22;5256;48.728;9.140;2022-08-01T06:58:28;26.10;99.90
10419;DHT22;5256;48.728;9.140;2022-08-01T07:00:54;26.10;99.90
10419;DHT22;5256;48.728;9.140;2022-08-01T07:03:19;26.20;99.90
10419;DHT22;5256;48.728;9.140;2022-08-01T07:05:45;26.50;99.90
10419;DHT22;5256;48.728;9.140;2022-08-01T07:08:10;26.90;99.90
10419;DHT22;5256;48.728;9.140;2022-08-01T07:10:36;27.50;99.50
10419;DHT22;5256;48.728;9.140;2022-08-01T07:13:01;27.60;99.10
10419;DHT22;5256;48.728;9.140;2022-08-01T07:15:27;27.40;99.30
10419;DHT22;5256;48.728;9.140;2022-08-01T07:17:52;27.50;99.20
10419;DHT22;5256;48.728;9.140;2022-08-01T07:20:18;27.80;99.20
10419;DHT22;5256;48.728;9.140;2022-08-01T07:22:44;28.00;98.30
10419;DHT22;5256;48.728;9.140;2022-08-01T07:25:09;28.00;98.10
10419;DHT22;5256;48.728;9.140;2022-08-01T07:27:35;28.00;97.90
10419;DHT22;5256;48.728;9.140;2022-08-01T07:30:01;28.10;97.60
10419;DHT22;5256;48.728;9.140;2022-08-01T07:32:27;28.40;97.80
10419;DHT22;5256;48.728;9.140;2022-08-01T07:34:54;28.90;97.10
10419;DHT22;5256;48.728;9.140;2022-08-01T07:37:20;29.10;96.60
10419;DHT22;5256;48.728;9.140;2022-08-01T07:39:45;29.20;96.50
10419;DHT22;5256;48.728;9.140;2022-08-01T07:42:11;29.40;96.00
10419;DHT22;5256;48.728;9.140;2022-08-01T07:44:36;29.20;95.90
10419;DHT22;5256;48.728;9.140;2022-08-01T07:47:03;28.90;96.00
10419;DHT22;5256;48.728;9.140;2022-08-01T07:49:29;28.40;96.50
10419;DHT22;5256;48.728;9.140;2022-08-01T07:51:55;27.90;96.80
10419;DHT22;5256;48.728;9.140;2022-08-01T07:54:20;27.40;97.20
10419;DHT22;5256;48.728;9.140;2022-08-01T07:56:49;27.10;97.40
10419;DHT22;5256;48.728;9.140;2022-08-01T07:59:15;26.90;98.10
10419;DHT22;5256;48.728;9.140;2022-08-01T08:01:40;26.90;98.00
10419;DHT22;5256;48.728;9.140;2022-08-01T08:04:07;26.60;98.50
10419;DHT22;5256;48.728;9.140;2022-08-01T08:06:32;27.00;98.50
10419;DHT22;5256;48.728;9.140;2022-08-01T08:08:58;27.80;97.80
10419;DHT22;5256;48.728;9.140;2022-08-01T08:11:23;28.50;97.00
10419;DHT22;5256;48.728;9.140;2022-08-01T08:13:49;28.80;96.50
10419;DHT22;5256;48.728;9.140;2022-08-01T08:16:15;29.40;95.60
10419;DHT22;5256;48.728;9.140;2022-08-01T08:18:40;29.20;95.70
10419;DHT22;5256;48.728;9.140;2022-08-01T08:21:06;28.90;95.70
10419;DHT22;5256;48.728;9.140;2022-08-01T08:23:32;28.70;96.20
10419;DHT22;5256;48.728;9.140;2022-08-01T08:26:16;28.90;96.20
10419;DHT22;5256;48.728;9.140;2022-08-01T08:28:41;29.80;95.30
10419;DHT22;5256;48.728;9.140;2022-08-01T08:31:07;30.50;94.50
10419;DHT22;5256;48.728;9.140;2022-08-01T08:33:33;30.60;94.10
10419;DHT22;5256;48.728;9.140;2022-08-01T08:35:59;30.60;94.20
10419;DHT22;5256;48.728;9.140;2022-08-01T08:38:24;29.90;94.00
10419;DHT22;5256;48.728;9.140;2022-08-01T08:40:52;29.20;94.70
10419;DHT22;5256;48.728;9.140;2022-08-01T08:43:18;28.70;95.20
10419;DHT22;5256;48.728;9.140;2022-08-01T08:45:45;28.50;95.70
10419;DHT22;5256;48.728;9.140;2022-08-01T08:48:12;28.00;96.20
10419;DHT22;5256;48.728;9.140;2022-08-01T08:50:38;27.60;96.20
10419;DHT22;5256;48.728;9.140;2022-08-01T08:53:06;27.80;96.70
10419;DHT22;5256;48.728;9.140;2022-08-01T08:55:35;28.40;96.10
10419;DHT22;5256;48.728;9.140;2022-08-01T08:58:01;28.50;95.90
10419;DHT22;5256;48.728;9.140;2022-08-01T09:00:32;29.10;95.60
10419;DHT22;5256;48.728;9.140;2022-08-01T09:02:57;29.50;94.00
10419;DHT22;5256;48.728;9.140;2022-08-01T09:05:23;29.00;94.60
10419;DHT22;5256;48.728;9.140;2022-08-01T09:07:52;29.30;94.30
10419;DHT22;5256;48.728;9.140;2022-08-01T09:10:18;29.40;94.60
10419;DHT22;5256;48.728;9.140;2022-08-01T09:13:14;29.70;94.30
10419;DHT22;5256;48.728;9.140;2022-08-01T09:18:06;29.30;94.10
10419;DHT22;5256;48.728;9.140;2022-08-01T09:20:32;28.60;94.30
10419;DHT22;5256;48.728;9.140;2022-08-01T09:23:00;28.00;95.00
10419;DHT22;5256;48.728;9.140;2022-08-01T09:25:25;27.30;95.60
10419;DHT22;5256;48.728;9.140;2022-08-01T09:28:05;26.90;96.40
10419;DHT22;5256;48.728;9.140;2022-08-01T09:30:37;27.10;96.20
10419;DHT22;5256;48.728;9.140;2022-08-01T09:33:04;27.70;96.10
10419;DHT22;5256;48.728;9.140;2022-08-01T09:40:57;28.60;95.20
10419;DHT22;5256;48.728;9.140;2022-08-01T09:43:27;29.70;95.50
10419;DHT22;5256;48.728;9.140;2022-08-01T09:45:54;29.90;94.40
10419;DHT22;5256;48.728;9.140;2022-08-01T09:48:21;30.20;93.70
10419;DHT22;5256;48.728;9.140;2022-08-01T09:50:48;30.10;93.50
10419;DHT22;5256;48.728;9.140;2022-08-01T09:53:14;30.30;93.70
10419;DHT22;5256;48.728;9.140;2022-08-01T09:55:41;30.40;93.50
10419;DHT22;5256;48.728;9.140;2022-08-01T09:58:07;30.30;93.40
10419;DHT22;5256;48.728;9.140;2022-08-01T10:00:34;30.00;93.20
10419;DHT22;5256;48.728;9.140;2022-08-01T10:03:18;29.70;93.20
10419;DHT22;5256;48.728;9.140;2022-08-01T10:05:43;29.90;93.70
10419;DHT22;5256;48.728;9.140;2022-08-01T10:08:09;30.00;93.70
10419;DHT22;5256;48.728;9.140;2022-08-01T10:10:35;29.40;94.10
10419;DHT22;5256;48.728;9.140;2022-08-01T10:13:02;29.00;94.60
10419;DHT22;5256;48.728;9.140;2022-08-01T10:15:29;28.70;95.40
10419;DHT22;5256;48.728;9.140;2022-08-01T10:17:57;29.20;94.90
10419;DHT22;5256;48.728;9.140;2022-08-01T10:20:26;28.80;95.00
10419;DHT22;5256;48.728;9.140;2022-08-01T10:22:54;28.90;95.10
10419;DHT22;5256;48.728;9.140;2022-08-01T10:25:21;29.20;94.80
10419;DHT22;5256;48.728;9.140;2022-08-01T10:27:52;29.40;94.90
10419;DHT22;5256;48.728;9.140;2022-08-01T10:30:21;29.20;94.70
10419;DHT22;5256;48.728;9.140;2022-08-01T10:32:48;29.10;94.60
10419;DHT22;5256;48.728;9.140;2022-08-01T10:35:14;29.00;94.70
10419;DHT22;5256;48.728;9.140;2022-08-01T10:37:44;29.20;94.50
10419;DHT22;5256;48.728;9.140;2022-08-01T10:40:12;29.40;94.20
10419;DHT22;5256;48.728;9.140;2022-08-01T10:42:43;29.50;94.50
10419;DHT22;5256;48.728;9.140;2022-08-01T10:45:11;30.10;94.10
10419;DHT22;5256;48.728;9.140;2022-08-01T10:50:45;30.50;93.00
10419;DHT22;5256;48.728;9.140;2022-08-01T10:53:20;30.30;92.90
10419;DHT22;5256;48.728;9.140;2022-08-01T11:03:41;29.60;93.20
10419;DHT22;5256;48.728;9.140;2022-08-01T11:06:16;29.00;94.00
10419;DHT22;5256;48.728;9.140;2022-08-01T11:08:43;28.70;94.10
10419;DHT22;5256;48.728;9.140;2022-08-01T11:11:15;28.60;94.60
10419;DHT22;5256;48.728;9.140;2022-08-01T11:14:07;28.50;94.50
10419;DHT22;5256;48.728;9.140;2022-08-01T11:16:36;28.10;94.40
10419;DHT22;5256;48.728;9.140;2022-08-01T11:19:03;28.30;94.90
10419;DHT22;5256;48.728;9.140;2022-08-01T11:30:23;28.70;94.80
10419;DHT22;5256;48.728;9.140;2022-08-01T11:32:53;28.10;94.70
10419;DHT22;5256;48.728;9.140;2022-08-01T11:35:20;27.80;95.00
10419;DHT22;5256;48.728;9.140;2022-08-01T11:37:47;27.70;95.10
10419;DHT22;5256;48.728;9.140;2022-08-01T11:40:23;27.40;95.20
10419;DHT22;5256;48.728;9.140;2022-08-01T11:43:36;27.30;95.20
10419;DHT22;5256;48.728;9.140;2022-08-01T11:45:55;27.00;95.20
10419;DHT22;5256;48.728;9.140;2022-08-01T11:48:25;27.00;95.90
10419;DHT22;5256;48.728;9.140;2022-08-01T11:50:52;27.10;95.40
10419;DHT22;5256;48.728;9.140;2022-08-01T11:53:19;27.10;95.30
10419;DHT22;5256;48.728;9.140;2022-08-01T11:55:50;27.20;95.40
10419;DHT22;5256;48.728;9.140;2022-08-01T11:58:20;27.40;94.80
10419;DHT22;5256;48.728;9.140;2022-08-01T12:03:27;27.50;95.30
10419;DHT22;5256;48.728;9.140;2022-08-01T12:05:53;27.70;94.90
10419;DHT22;5256;48.728;9.140;2022-08-01T12:08:26;27.70;94.80
10419;DHT22;5256;48.728;9.140;2022-08-01T12:10:52;27.70;94.70
10419;DHT22;5256;48.728;9.140;2022-08-01T12:13:18;27.90;94.90
10419;DHT22;5256;48.728;9.140;2022-08-01T12:15:44;27.90;94.50
10419;DHT22;5256;48.728;9.140;2022-08-01T12:18:10;27.50;94.80
10419;DHT22;5256;48.728;9.140;2022-08-01T12:20:39;27.60;95.40
10419;DHT22;5256;48.728;9.140;2022-08-01T12:23:10;27.80;94.90
10419;DHT22;5256;48.728;9.140;2022-08-01T12:25:37;28.00;94.10
10419;DHT22;5256;48.728;9.140;2022-08-01T12:28:05;28.10;94.00
10419;DHT22;5256;48.728;9.140;2022-08-01T12:30:31;28.20;94.00
10419;DHT22;5256;48.728;9.140;2022-08-01T12:33:01;28.30;94.50
10419;DHT22;5256;48.728;9.140;2022-08-01T12:35:28;28.30;94.10
10419;DHT22;5256;48.728;9.140;2022-08-01T12:38:04;28.30;94.20
10419;DHT22;5256;48.728;9.140;2022-08-01T12:40:32;28.10;95.00
10419;DHT22;5256;48.728;9.140;2022-08-01T12:43:03;28.00;94.80
10419;DHT22;5256;48.728;9.140;2022-08-01T12:45:39;28.20;95.10
10419;DHT22;5256;48.728;9.140;2022-08-01T12:48:09;28.20;94.40
10419;DHT22;5256;48.728;9.140;2022-08-01T12:50:38;28.10;94.40
10419;DHT22;5256;48.728;9.140;2022-08-01T12:53:04;28.10;94.40
10419;DHT22;5256;48.728;9.140;2022-08-01T12:55:30;27.90;94.20
10419;DHT22;5256;48.728;9.140;2022-08-01T12:58:07;28.00;94.80
10419;DHT22;5256;48.728;9.140;2022-08-01T13:00:35;28.10;94.90
10419;DHT22;5256;48.728;9.140;2022-08-01T13:03:08;28.50;94.40
10419;DHT22;5256;48.728;9.140;2022-08-01T13:06:00;28.80;94.00
10419;DHT22;5256;48.728;9.140;2022-08-01T13:08:33;29.00;93.70
10419;DHT22;5256;48.728;9.140;2022-08-01T13:11:13;29.20;93.40
10419;DHT22;5256;48.728;9.140;2022-08-01T13:13:44;29.40;93.50
10419;DHT22;5256;48.728;9.140;2022-08-01T13:16:13;29.10;93.30
10419;DHT22;5256;48.728;9.140;2022-08-01T13:18:39;29.00;93.00
10419;DHT22;5256;48.728;9.140;2022-08-01T13:23:42;28.50;93.40
10419;DHT22;5256;48.728;9.140;2022-08-01T13:26:38;28.20;93.90
10419;DHT22;5256;48.728;9.140;2022-08-01T13:29:05;28.20;94.10
10419;DHT22;5256;48.728;9.140;2022-08-01T13:31:35;28.40;94.30
10419;DHT22;5256;48.728;9.140;2022-08-01T13:34:01;28.50;93.90
10419;DHT22;5256;48.728;9.140;2022-08-01T13:36:28;28.80;94.20
10419;DHT22;5256;48.728;9.140;2022-08-01T13:38:54;29.00;93.90
10419;DHT22;5256;48.728;9.140;2022-08-01T13:41:39;29.00;93.50
10419;DHT22;5256;48.728;9.140;2022-08-01T13:44:05;28.90;93.50
10419;DHT22;5256;48.728;9.140;2022-08-01T13:46:31;28.90;94.00
10419;DHT22;5256;48.728;9.140;2022-08-01T13:48:57;29.10;93.70
10419;DHT22;5256;48.728;9.140;2022-08-01T13:51:23;29.20;93.80
10419;DHT22;5256;48.728;9.140;2022-08-01T13:53:48;29.30;93.60
10419;DHT22;5256;48.728;9.140;2022-08-01T13:56:14;29.30;93.50
10419;DHT22;5256;48.728;9.140;2022-08-01T13:58:41;29.20;93.00
10419;DHT22;5256;48.728;9.140;2022-08-01T14:01:07;29.10;93.30
10419;DHT22;5256;48.728;9.140;2022-08-01T14:03:32;29.30;92.90
10419;DHT22;5256;48.728;9.140;2022-08-01T14:05:58;29.40;93.30
10419;DHT22;5256;48.728;9.140;2022-08-01T14:08:24;29.70;93.10
10419;DHT22;5256;48.728;9.140;2022-08-01T14:10:49;29.60;92.90
10419;DHT22;5256;48.728;9.140;2022-08-01T14:13:15;29.40;92.60
10419;DHT22;5256;48.728;9.140;2022-08-01T14:15:40;29.00;93.10
10419;DHT22;5256;48.728;9.140;2022-08-01T14:18:07;28.70;93.90
10419;DHT22;5256;48.728;9.140;2022-08-01T14:20:33;28.70;93.70
10419;DHT22;5256;48.728;9.140;2022-08-01T14:22:59;28.50;93.30
10419;DHT22;5256;48.728;9.140;2022-08-01T14:25:25;28.40;93.60
10419;DHT22;5256;48.728;9.140;2022-08-01T14:27:50;28.50;93.60
10419;DHT22;5256;48.728;9.140;2022-08-01T14:30:16;28.70;93.60
10419;DHT22;5256;48.728;9.140;2022-08-01T14:32:41;28.60;93.30
10419;DHT22;5256;48.728;9.140;2022-08-01T14:35:07;28.80;93.40
10419;DHT22;5256;48.728;9.140;2022-08-01T14:37:33;28.80;93.40
10419;DHT22;5256;48.728;9.140;2022-08-01T14:40:00;28.90;93.30
10419;DHT22;5256;48.728;9.140;2022-08-01T14:42:29;29.10;93.20
10419;DHT22;5256;48.728;9.140;2022-08-01T14:44:55;29.20;93.00
10419;DHT22;5256;48.728;9.140;2022-08-01T14:47:21;29.70;92.70
10419;DHT22;5256;48.728;9.140;2022-08-01T14:49:46;30.20;92.20
10419;DHT22;5256;48.728;9.140;2022-08-01T14:52:12;30.30;92.40
10419;DHT22;5256;48.728;9.140;2022-08-01T14:54:37;30.30;92.10
10419;DHT22;5256;48.728;9.140;2022-08-01T14:57:03;30.30;91.70
10419;DHT22;5256;48.728;9.140;2022-08-01T14:59:29;30.00;92.30
10419;DHT22;5256;48.728;9.140;2022-08-01T15:01:54;30.40;91.40
10419;DHT22;5256;48.728;9.140;2022-08-01T15:04:20;30.30;91.40
10419;DHT22;5256;48.728;9.140;2022-08-01T15:06:45;30.70;91.00
10419;DHT22;5256;48.728;9.140;2022-08-01T15:09:11;31.20;90.70
10419;DHT22;5256;48.728;9.140;2022-08-01T15:11:37;31.70;90.60
10419;DHT22;5256;48.728;9.140;2022-08-01T15:14:02;32.10;90.50
10419;DHT22;5256;48.728;9.140;2022-08-01T15:16:47;31.70;90.00
10419;DHT22;5256;48.728;9.140;2022-08-01T15:19:13;31.20;89.80
10419;DHT22;5256;48.728;9.140;2022-08-01T15:21:38;30.60;90.40
10419;DHT22;5256;48.728;9.140;2022-08-01T15:24:04;30.20;90.40
10419;DHT22;5256;48.728;9.140;2022-08-01T15:26:30;29.70;90.50
10419;DHT22;5256;48.728;9.140;2022-08-01T15:28:56;29.30;91.00
10419;DHT22;5256;48.728;9.140;2022-08-01T15:31:22;29.10;91.00
10419;DHT22;5256;48.728;9.140;2022-08-01T15:33:47;29.00;91.30
10419;DHT22;5256;48.728;9.140;2022-08-01T15:36:13;28.80;91.30
10419;DHT22;5256;48.728;9.140;2022-08-01T15:38:38;28.70;91.40
10419;DHT22;5256;48.728;9.140;2022-08-01T15:41:04;28.70;91.60
10419;DHT22;5256;48.728;9.140;2022-08-01T15:43:29;28.50;91.50
10419;DHT22;5256;48.728;9.140;2022-08-01T15:45:55;28.50;92.00
10419;DHT22;5256;48.728;9.140;2022-08-01T15:48:22;28.40;91.50
10419;DHT22;5256;48.728;9.140;2022-08-01T15:50:48;28.30;91.90
10419;DHT22;5256;48.728;9.140;2022-08-01T15:53:13;28.30;92.00
10419;DHT22;5256;48.728;9.140;2022-08-01T15:55:39;28.30;92.00
10419;DHT22;5256;48.728;9.140;2022-08-01T15:58:05;28.30;92.00
10419;DHT22;5256;48.728;9.140;2022-08-01T16:00:32;28.10;92.30
10419;DHT22;5256;48.728;9.140;2022-08-01T16:02:58;28.10;92.00
10419;DHT22;5256;48.728;9.140;2022-08-01T16:05:24;28.10;92.20
10419;DHT22;5256;48.728;9.140;2022-08-01T16:07:49;28.00;91.70
10419;DHT22;5256;48.728;9.140;2022-08-01T16:10:15;27.70;92.20
10419;DHT22;5256;48.728;9.140;2022-08-01T16:12:40;27.50;92.30
10419;DHT22;5256;48.728;9.140;2022-08-01T16:15:06;27.50;92.30
10419;DHT22;5256;48.728;9.140;2022-08-01T16:17:32;27.70;92.00
10419;DHT22;5256;48.728;9.140;2022-08-01T16:19:58;27.60;92.30
10419;DHT22;5256;48.728;9.140;2022-08-01T16:22:24;27.40;92.40
10419;DHT22;5256;48.728;9.140;2022-08-01T16:24:49;27.40;92.40
10419;DHT22;5256;48.728;9.140;2022-08-01T16:27:16;27.40;92.60
10419;DHT22;5256;48.728;9.140;2022-08-01T16:29:42;27.40;92.60
10419;DHT22;5256;48.728;9.140;2022-08-01T16:32:08;27.40;92.70
10419;DHT22;5256;48.728;9.140;2022-08-01T16:34:33;27.40;92.70